Time;durP1;ratioP1;P1;durP2;ratioP2;P2;SDS_P1;SDS_P2;PMS_P1;PMS_P2;Temp;Humidity;BMP_temperature;BMP_pressure;BME280_temperature;BME280_humidity;BME280_pressure;Samples;Min_cycle;Max_cycle;Signal;HPM_P1;HPM_P2
2024/04/10 00:01:12;;;;;;;1.58;0.52;;;;;;;22.74;31.66;100921.13;4865170;26;20011;-49
2024/04/10 00:03:22;;;;;;;2.33;0.70;;;;;;;22.74;31.74;100921.13;4866020;26;20007;-48
2024/04/10 00:05:33;;;;;;;0.90;0.60;;;;;;;22.73;31.41;100928.06;4865695;26;20011;-47
2024/04/10 00:07:43;;;;;;;1.05;0.60;;;;;;;22.72;31.60;100921.47;4866847;26;20024;-49
2024/04/10 00:09:53;;;;;;;0.65;0.50;;;;;;;22.72;31.53;100926.41;4865999;26;20027;-49
2024/04/10 00:12:04;;;;;;;1.35;0.60;;;;;;;22.73;31.85;100936.69;4866020;26;20085;-48
2024/04/10 00:14:14;;;;;;;0.85;0.57;;;;;;;22.72;31.70;100929.28;4865438;26;20360;-48
2024/04/10 00:16:25;;;;;;;0.73;0.60;;;;;;;22.71;31.70;100933.34;4867690;26;20018;-47
2024/04/10 00:18:36;;;;;;;1.42;0.60;;;;;;;22.71;31.69;100937.06;4864675;26;24883;-49
2024/04/10 00:20:47;;;;;;;1.25;0.68;;;;;;;22.71;31.69;100936.22;4870087;26;20576;-48
2024/04/10 00:22:57;;;;;;;1.13;0.50;;;;;;;22.71;31.67;100942.00;4867869;26;20020;-48
2024/04/10 00:25:08;;;;;;;1.50;0.70;;;;;;;22.70;31.58;100952.69;4865887;26;20730;-49
2024/04/10 00:27:18;;;;;;;1.63;0.65;;;;;;;22.70;31.76;100954.72;4866672;26;20028;-48
2024/04/10 00:29:28;;;;;;;1.08;0.60;;;;;;;22.69;31.62;100956.75;4864545;26;20762;-50
2024/04/10 00:31:39;;;;;;;1.40;0.60;;;;;;;22.69;30.87;100961.69;4865481;26;20043;-48
2024/04/10 00:33:49;;;;;;;1.60;0.60;;;;;;;22.67;31.78;100959.19;4868801;26;20512;-49
2024/04/10 00:36:01;;;;;;;1.20;0.70;;;;;;;22.69;31.76;100955.94;4865131;26;20063;-48
2024/04/10 00:38:12;;;;;;;0.85;0.55;;;;;;;22.68;31.68;100960.00;4864816;26;21818;-48
2024/04/10 00:40:23;;;;;;;1.80;0.60;;;;;;;22.67;31.64;100964.09;4871951;26;20015;-49
2024/04/10 00:42:33;;;;;;;1.35;0.80;;;;;;;22.67;31.78;100961.22;4863661;26;20012;-48
2024/04/10 00:44:50;;;;;;;2.20;0.63;;;;;;;22.66;31.46;100963.25;4862805;26;20004;-48
2024/04/10 00:47:01;;;;;;;;;;;;;;;22.66;31.57;100965.31;4866617;26;20027;-48
2024/04/10 00:49:11;;;;;;;0.88;0.63;;;;;;;22.67;31.56;100969.84;4863795;26;19929;-48
2024/04/10 00:51:22;;;;;;;2.50;0.90;;;;;;;22.66;31.79;100971.06;4862916;26;20008;-48
2024/04/10 00:53:34;;;;;;;2.72;0.80;;;;;;;22.64;31.63;100976.34;4881035;26;20025;-52
2024/04/10 00:55:44;;;;;;;1.15;0.60;;;;;;;22.66;31.53;100979.69;4865563;26;20011;-53
2024/04/10 00:57:55;;;;;;;1.92;0.70;;;;;;;22.65;31.66;100978.00;4864553;26;20016;-52
2024/04/10 01:00:06;;;;;;;1.40;0.80;;;;;;;22.63;31.56;100975.50;4864594;26;20023;-53
2024/04/10 01:02:16;;;;;;;1.92;0.65;;;;;;;22.64;31.40;100976.34;4866441;26;20022;-48
2024/04/10 01:04:26;;;;;;;1.27;0.70;;;;;;;22.63;31.40;100972.63;4868460;26;20033;-53
2024/04/10 01:06:37;;;;;;;1.65;0.60;;;;;;;22.64;31.57;100979.22;4870855;26;21568;-52
2024/04/10 01:08:47;;;;;;;0.80;0.52;;;;;;;22.63;31.57;100980.44;4867080;26;20003;-52
2024/04/10 01:10:59;;;;;;;1.77;0.70;;;;;;;22.62;31.58;100978.75;4883868;26;20011;-51
2024/04/10 01:13:10;;;;;;;1.33;0.70;;;;;;;22.62;31.49;100984.50;4867510;26;20011;-48
2024/04/10 01:15:21;;;;;;;1.95;0.70;;;;;;;22.61;31.58;100983.66;4866725;26;20085;-47
2024/04/10 01:17:32;;;;;;;1.52;0.70;;;;;;;22.61;31.44;100983.66;4883992;26;20435;-49
2024/04/10 01:19:42;;;;;;;0.95;0.60;;;;;;;22.61;31.36;100982.84;4871383;26;20503;-50
2024/04/10 01:21:53;;;;;;;1.85;0.70;;;;;;;22.61;31.44;100982.84;4867047;26;21222;-47
2024/04/10 01:24:03;;;;;;;1.50;0.70;;;;;;;22.60;31.36;100986.91;4866077;26;20011;-50
2024/04/10 01:26:14;;;;;;;1.77;0.80;;;;;;;22.60;31.43;100984.88;4868686;26;20088;-49
2024/04/10 01:28:24;;;;;;;1.80;0.73;;;;;;;22.60;31.37;100981.16;4867450;26;20008;-47
2024/04/10 01:30:35;;;;;;;1.55;0.70;;;;;;;22.60;31.17;100989.78;4873162;26;20065;-49
2024/04/10 01:32:45;;;;;;;1.65;0.70;;;;;;;22.59;31.39;101002.53;4865396;26;20108;-48
2024/04/10 01:34:56;;;;;;;1.00;0.60;;;;;;;22.59;31.33;101005.41;4865909;26;20011;-48
2024/04/10 01:37:06;;;;;;;2.05;0.77;;;;;;;22.57;31.19;101011.53;4864912;26;20022;-49
2024/04/10 01:39:17;;;;;;;1.48;0.60;;;;;;;22.58;31.20;101013.19;4867906;26;20026;-49
2024/04/10 01:41:27;;;;;;;1.02;0.60;;;;;;;22.58;31.34;101012.38;4869410;26;20021;-48
2024/04/10 01:43:37;;;;;;;2.05;0.80;;;;;;;22.57;31.28;101010.69;4870217;26;20020;-48
2024/04/10 01:45:48;;;;;;;1.63;0.80;;;;;;;22.57;31.00;101023.03;4869729;26;20008;-52
2024/04/10 01:47:58;;;;;;;2.17;0.88;;;;;;;22.56;31.09;101026.28;4867106;26;20012;-50
2024/04/10 01:50:09;;;;;;;1.83;0.70;;;;;;;22.55;31.13;101013.13;4866914;26;20011;-47
2024/04/10 01:52:19;;;;;;;1.42;0.80;;;;;;;22.55;31.07;101021.75;4866995;26;20011;-48
2024/04/10 01:54:30;;;;;;;2.13;0.88;;;;;;;22.55;30.99;101021.75;4870469;26;20016;-49
2024/04/10 01:56:40;;;;;;;2.50;0.70;;;;;;;22.55;30.88;101021.75;4867045;26;20015;-47
2024/04/10 01:58:50;;;;;;;1.15;0.60;;;;;;;22.54;30.87;101034.44;4867995;26;20019;-48
2024/04/10 02:01:01;;;;;;;2.72;0.90;;;;;;;22.55;30.88;101036.13;4865078;26;25195;-48
2024/04/10 02:03:11;;;;;;;1.77;0.70;;;;;;;22.54;31.05;101035.28;4871192;26;20011;-47
2024/04/10 02:05:22;;;;;;;1.85;0.80;;;;;;;22.54;30.84;101040.19;4872616;26;20018;-48
2024/04/10 02:07:32;;;;;;;1.92;0.85;;;;;;;22.53;30.88;101036.50;4868261;26;20026;-49
2024/04/10 02:09:42;;;;;;;1.48;0.70;;;;;;;22.53;30.94;101044.28;4865955;26;20084;-50
2024/04/10 02:11:53;;;;;;;0.80;0.60;;;;;;;22.52;30.86;101036.84;4869193;26;20030;-49
2024/04/10 02:14:03;;;;;;;1.80;0.80;;;;;;;22.51;30.97;101038.03;4866357;26;20044;-48
2024/04/10 02:16:14;;;;;;;2.05;0.70;;;;;;;22.51;31.17;101047.50;4867706;26;20020;-47
2024/04/10 02:18:25;;;;;;;1.80;0.80;;;;;;;22.51;30.94;101052.41;4866384;26;20027;-47
2024/04/10 02:20:35;;;;;;;2.33;0.80;;;;;;;22.51;31.14;101046.66;4867695;26;20016;-49
2024/04/10 02:22:46;;;;;;;2.53;0.90;;;;;;;22.50;30.85;101047.88;4866438;26;20085;-48
2024/04/10 02:24:56;;;;;;;1.83;0.80;;;;;;;22.50;30.78;101050.75;4865606;26;20031;-48
2024/04/10 02:27:06;;;;;;;2.05;0.60;;;;;;;22.49;30.71;101051.94;4869587;26;20403;-50
2024/04/10 02:29:17;;;;;;;1.70;0.60;;;;;;;22.49;31.04;101049.91;4868264;26;20448;-48
2024/04/10 02:31:27;;;;;;;2.15;0.70;;;;;;;22.48;31.09;101062.63;4866860;26;20084;-48
2024/04/10 02:33:38;;;;;;;1.20;0.70;;;;;;;22.49;30.78;101060.56;4865103;26;20664;-49
2024/04/10 02:35:48;;;;;;;2.40;0.68;;;;;;;22.49;30.72;101067.16;4867249;26;20488;-49
2024/04/10 02:37:59;;;;;;;1.63;0.70;;;;;;;22.48;30.89;101061.78;4866165;26;21217;-47
2024/04/10 02:40:09;;;;;;;2.08;0.77;;;;;;;22.47;30.86;101060.13;4868424;26;20011;-51
2024/04/10 02:42:20;;;;;;;1.55;0.70;;;;;;;22.47;30.89;101069.56;4867051;26;20026;-51
2024/04/10 02:44:30;;;;;;;1.17;0.60;;;;;;;22.47;30.87;101074.50;4868380;26;20360;-47
2024/04/10 02:46:40;;;;;;;1.80;0.70;;;;;;;22.46;30.93;101073.66;4867991;26;20018;-47
2024/04/10 02:48:51;;;;;;;1.42;0.95;;;;;;;22.47;30.66;101080.25;4866691;26;20015;-48
2024/04/10 02:51:02;;;;;;;1.65;0.82;;;;;;;22.47;30.99;101086.00;4867905;26;20026;-48
2024/04/10 02:53:12;;;;;;;2.80;1.10;;;;;;;22.46;30.78;101085.16;4867467;26;20357;-47
2024/04/10 02:55:24;;;;;;;1.50;0.80;;;;;;;22.46;30.88;101088.03;4867299;26;21242;-49
2024/04/10 02:57:34;;;;;;;2.03;0.70;;;;;;;22.44;30.81;101087.56;4866381;26;20023;-49
2024/04/10 02:59:44;;;;;;;1.67;0.70;;;;;;;22.45;30.76;101097.88;4867810;26;20492;-48
2024/04/10 03:01:55;;;;;;;2.35;0.80;;;;;;;22.45;30.87;101108.56;4867223;26;20027;-48
2024/04/10 03:04:05;;;;;;;2.72;0.70;;;;;;;22.44;31.02;101110.59;4866187;26;20015;-48
2024/04/10 03:06:16;;;;;;;1.13;0.70;;;;;;;22.44;30.81;101116.34;4893245;26;20064;-48
2024/04/10 03:08:26;;;;;;;1.20;0.70;;;;;;;22.44;31.06;101127.03;4866414;26;20018;-50
2024/04/10 03:10:38;;;;;;;1.65;0.70;;;;;;;22.45;30.86;101137.31;4866770;26;20030;-47
2024/04/10 03:12:48;;;;;;;2.30;0.80;;;;;;;22.43;30.73;101131.09;4864695;26;20596;-50
2024/04/10 03:14:58;;;;;;;1.45;0.73;;;;;;;22.42;30.83;101130.25;4867821;26;20026;-47
2024/04/10 03:17:11;;;;;;;2.30;0.90;;;;;;;22.43;30.74;101136.84;4863593;26;20039;-50
2024/04/10 03:19:22;;;;;;;1.25;0.60;;;;;;;22.41;30.84;101145.84;4872256;26;20008;-48
2024/04/10 03:21:32;;;;;;;1.85;0.70;;;;;;;22.43;30.85;101139.72;4868291;26;20027;-47
2024/04/10 03:23:43;;;;;;;1.33;0.68;;;;;;;22.41;30.96;101145.84;4866962;26;20027;-48
2024/04/10 03:26:19;;;;;;;1.55;0.70;;;;;;;22.41;31.11;101147.88;4865624;26;20007;-47
2024/04/10 03:28:30;;;;;;;1.38;0.65;;;;;;;22.40;30.93;101154.84;4864296;26;21011;-47
2024/04/10 03:30:41;;;;;;;2.20;0.80;;;;;;;22.39;31.15;101161.81;4866550;26;20018;-48
2024/04/10 03:32:51;;;;;;;1.92;0.90;;;;;;;22.40;30.96;101161.44;4869762;26;20008;-51
2024/04/10 03:35:03;;;;;;;1.45;0.65;;;;;;;22.40;30.70;101172.94;4867535;26;20019;-48
2024/04/10 03:37:14;;;;;;;2.22;0.75;;;;;;;22.40;30.94;101174.97;4866309;26;21932;-48
2024/04/10 03:39:24;;;;;;;1.73;0.70;;;;;;;22.39;30.89;101177.00;4865731;26;20099;-47
2024/04/10 03:41:35;;;;;;;1.80;0.95;;;;;;;22.39;30.68;101179.06;4867275;26;20027;-48
2024/04/10 03:43:46;;;;;;;2.13;0.80;;;;;;;22.39;30.91;101181.94;4869453;26;20019;-48
2024/04/10 03:45:56;;;;;;;1.73;0.70;;;;;;;22.39;30.71;101179.06;4870034;26;26245;-48
2024/04/10 03:48:07;;;;;;;2.40;0.88;;;;;;;22.38;30.93;101186.00;4867041;26;20008;-48
2024/04/10 03:50:18;;;;;;;1.55;0.60;;;;;;;22.38;30.93;101194.63;4866050;26;20471;-47
2024/04/10 03:52:28;;;;;;;1.40;0.60;;;;;;;22.38;30.83;101188.88;4866329;26;20027;-47
2024/04/10 03:54:39;;;;;;;1.92;0.80;;;;;;;22.37;30.68;101190.94;4867468;26;20016;-48
2024/04/10 03:56:49;;;;;;;2.60;0.80;;;;;;;22.37;30.96;101201.59;4867070;26;21378;-47
2024/04/10 03:58:59;;;;;;;1.27;0.70;;;;;;;22.37;31.06;101205.31;4868187;26;20012;-48
2024/04/10 04:01:10;;;;;;;2.15;0.77;;;;;;;22.36;31.25;101209.38;4866145;26;20425;-48
2024/04/10 04:03:21;;;;;;;2.38;0.70;;;;;;;22.37;30.80;101215.97;4871081;26;20418;-49
2024/04/10 04:05:32;;;;;;;1.50;0.70;;;;;;;22.36;30.93;101217.19;4864746;26;20877;-47
2024/04/10 04:07:42;;;;;;;1.75;0.60;;;;;;;22.36;30.91;101220.88;4867994;26;20047;-48
2024/04/10 04:09:53;;;;;;;1.83;0.80;;;;;;;22.36;30.99;101232.38;4868422;26;20012;-49
2024/04/10 04:12:04;;;;;;;2.75;0.95;;;;;;;22.35;30.98;101233.59;4866891;26;20018;-47
2024/04/10 04:14:14;;;;;;;1.75;0.95;;;;;;;22.36;30.83;101240.19;4866883;26;20011;-48
2024/04/10 04:16:25;;;;;;;3.45;1.10;;;;;;;22.35;30.88;101250.00;4865986;26;20023;-47
2024/04/10 04:18:36;;;;;;;3.22;1.50;;;;;;;22.35;30.85;101255.75;4864426;26;20126;-48
2024/04/10 04:20:50;;;;;;;3.78;2.00;;;;;;;22.34;30.88;101259.84;4864546;26;20022;-47
2024/04/10 04:23:01;;;;;;;4.45;1.83;;;;;;;22.35;31.11;101267.25;4871787;26;20015;-47
2024/04/10 04:25:12;;;;;;;4.70;2.30;;;;;;;22.35;30.95;101273.00;4865620;26;20023;-48
2024/04/10 04:27:25;;;;;;;2.22;1.38;;;;;;;22.34;30.95;101291.47;4865670;26;27244;-49
2024/04/10 04:29:35;;;;;;;3.20;1.40;;;;;;;22.34;30.81;101289.44;4867188;26;20015;-48
2024/04/10 04:31:46;;;;;;;2.17;1.10;;;;;;;22.33;31.09;101298.41;4865365;26;23820;-48
2024/04/10 04:33:56;;;;;;;1.95;0.88;;;;;;;22.32;31.12;101299.63;4867246;26;20475;-48
2024/04/10 04:36:09;;;;;;;1.45;0.70;;;;;;;22.34;31.00;101305.84;4866584;26;20012;-48
2024/04/10 04:38:19;;;;;;;1.83;0.73;;;;;;;22.32;31.17;101314.84;4866296;26;20022;-48
2024/04/10 04:40:31;;;;;;;1.23;0.70;;;;;;;22.32;31.05;101320.59;4868561;26;20097;-47
2024/04/10 04:42:42;;;;;;;1.67;0.80;;;;;;;22.32;31.20;101319.75;4866729;26;20524;-48
2024/04/10 04:44:52;;;;;;;1.55;0.68;;;;;;;22.31;31.19;101329.59;4868070;26;20089;-48
2024/04/10 04:47:03;;;;;;;1.52;0.80;;;;;;;22.32;31.13;101345.66;4868591;26;20007;-48
2024/04/10 04:49:14;;;;;;;2.47;0.98;;;;;;;22.31;30.94;101349.72;4868094;26;20027;-48
2024/04/10 04:51:27;;;;;;;1.42;0.80;;;;;;;22.30;31.08;101351.75;4868012;26;20027;-48
2024/04/10 04:53:37;;;;;;;1.85;0.73;;;;;;;22.31;31.05;101352.59;4867746;26;20514;-49
2024/04/10 04:55:48;;;;;;;2.33;1.00;;;;;;;22.30;31.26;101356.66;4867031;26;20389;-47
2024/04/10 04:57:58;;;;;;;2.15;0.88;;;;;;;22.30;31.62;101357.50;4864837;26;20019;-48
2024/04/10 05:00:14;;;;;;;2.08;0.90;;;;;;;22.30;31.11;101360.38;4867301;26;22613;-52
2024/04/10 05:02:24;;;;;;;2.63;1.10;;;;;;;22.29;31.24;101360.75;4866863;26;20015;-49
2024/04/10 05:07:04;;;;;;;2.47;1.08;;;;;;;22.30;31.30;101373.91;4867214;26;20589;-48
2024/04/10 05:09:15;;;;;;;2.00;0.77;;;;;;;22.30;31.52;101376.78;4871629;26;20022;-49
2024/04/10 05:11:26;;;;;;;2.00;0.80;;;;;;;22.28;31.59;101377.16;4869794;26;20432;-49
2024/04/10 05:13:36;;;;;;;1.35;0.70;;;;;;;22.28;31.52;101384.97;4866041;26;20175;-49
2024/04/10 05:15:47;;;;;;;2.55;0.95;;;;;;;22.28;31.34;101387.84;4867208;26;20011;-48
2024/04/10 05:17:57;;;;;;;1.67;0.93;;;;;;;22.29;31.53;101389.50;4866729;26;20012;-48
2024/04/10 05:20:14;;;;;;;2.05;0.80;;;;;;;22.29;31.27;101404.75;4870888;26;20043;-47
2024/04/10 05:22:25;;;;;;;1.25;0.75;;;;;;;22.29;31.37;101395.25;4866120;26;20085;-48
2024/04/10 05:24:36;;;;;;;2.88;0.98;;;;;;;22.29;31.28;101403.88;4872155;26;20085;-48
2024/04/10 05:26:46;;;;;;;2.08;0.85;;;;;;;22.28;31.66;101405.09;4869653;26;20012;-48
2024/04/10 05:28:56;;;;;;;2.70;1.00;;;;;;;22.27;31.34;101398.50;4869396;26;20078;-48
2024/04/10 05:31:09;;;;;;;3.63;0.80;;;;;;;22.27;31.29;101403.41;4870376;26;20026;-50
2024/04/10 05:33:20;;;;;;;2.35;1.10;;;;;;;22.27;31.38;101406.28;4867363;26;20088;-48
2024/04/10 05:35:30;;;;;;;1.85;0.98;;;;;;;22.26;31.75;101401.72;4867567;26;20412;-50
2024/04/10 05:37:40;;;;;;;2.53;1.08;;;;;;;22.27;31.60;101400.53;4869429;26;20448;-52
2024/04/10 05:40:05;;;;;;;2.15;1.00;;;;;;;22.26;31.54;101414.09;4867105;26;20027;-52
2024/04/10 05:42:16;;;;;;;2.47;0.98;;;;;;;22.26;31.46;101424.75;4866930;26;20336;-49
2024/04/10 05:44:26;;;;;;;2.20;0.90;;;;;;;22.25;31.62;101420.19;4866072;26;25126;-48
2024/04/10 05:46:37;;;;;;;2.38;0.90;;;;;;;22.25;31.75;101425.94;4869221;26;20016;-52
2024/04/10 05:48:47;;;;;;;1.75;0.90;;;;;;;22.26;31.62;101436.25;4872016;26;20016;-49
2024/04/10 05:51:01;;;;;;;2.22;0.85;;;;;;;22.24;31.66;101439.47;4867173;26;20037;-49
2024/04/10 05:53:11;;;;;;;2.53;1.10;;;;;;;22.23;31.60;101441.50;4864325;26;20026;-51
2024/04/10 05:55:22;;;;;;;3.47;1.00;;;;;;;22.23;31.63;101455.88;4866107;26;20479;-49
2024/04/10 05:57:32;;;;;;;2.47;0.77;;;;;;;22.23;31.58;101451.34;4865578;26;21121;-48
2024/04/10 05:59:43;;;;;;;1.45;0.70;;;;;;;22.23;31.78;101466.56;4873749;26;20026;-47
2024/04/10 06:01:53;;;;;;;1.30;0.82;;;;;;;22.22;31.62;101459.13;4864801;26;20620;-50
2024/04/10 06:04:04;;;;;;;2.30;0.88;;;;;;;22.23;31.84;101468.59;4865276;26;20388;-50
2024/04/10 06:06:15;;;;;;;1.80;0.75;;;;;;;22.21;31.69;101475.53;4872377;26;20480;-47
2024/04/10 06:08:26;;;;;;;2.85;0.93;;;;;;;22.21;31.91;101481.28;4869435;26;20008;-48
2024/04/10 06:10:36;;;;;;;2.67;1.00;;;;;;;22.20;32.62;101485.34;4866082;26;20008;-48
2024/04/10 06:12:50;;;;;;;1.92;1.00;;;;;;;22.20;32.17;101484.50;4866640;26;20008;-49
2024/04/10 06:15:00;;;;;;;3.53;1.00;;;;;;;22.18;32.40;101493.50;4866206;26;20657;-47
2024/04/10 06:17:11;;;;;;;2.05;0.80;;;;;;;22.19;32.15;101495.19;4864598;26;20018;-51
2024/04/10 06:19:21;;;;;;;1.83;0.98;;;;;;;22.19;31.92;101488.59;4867180;26;20452;-49
2024/04/10 06:21:31;;;;;;;3.03;1.20;;;;;;;22.19;31.99;101494.34;4864754;26;20018;-47
2024/04/10 06:23:42;;;;;;;1.85;1.00;;;;;;;22.18;32.02;101507.06;4866332;26;20362;-47
2024/04/10 06:25:53;;;;;;;1.67;0.60;;;;;;;22.19;35.58;101502.97;4867830;26;20011;-48
2024/04/10 06:28:03;;;;;;;2.58;0.90;;;;;;;22.19;35.42;101509.56;4867888;26;20008;-47
2024/04/10 06:30:14;;;;;;;1.08;0.50;;;;;;;22.19;38.43;101503.81;4865849;26;20007;-49
2024/04/10 06:32:24;;;;;;;1.42;0.60;;;;;;;22.19;38.82;101514.47;4865285;26;20019;-51
2024/04/10 06:34:35;;;;;;;1.05;0.77;;;;;;;22.18;39.26;101516.50;4870743;26;20475;-47
2024/04/10 06:36:45;;;;;;;1.42;0.70;;;;;;;22.18;39.20;101512.81;4868471;26;20017;-48
2024/04/10 06:38:55;;;;;;;1.55;0.70;;;;;;;22.18;39.06;101522.25;4866822;26;20478;-49
2024/04/10 06:41:06;;;;;;;3.10;0.90;;;;;;;22.19;38.22;101531.72;4868901;26;24987;-47
2024/04/10 06:43:16;;;;;;;2.25;1.02;;;;;;;22.18;37.30;101530.06;4867953;26;20022;-49
2024/04/10 06:45:27;;;;;;;1.40;0.70;;;;;;;22.18;38.51;101532.94;4883002;26;20007;-48
2024/04/10 06:47:37;;;;;;;1.92;0.90;;;;;;;22.17;37.75;101537.84;4867489;26;20015;-48
2024/04/10 06:49:51;;;;;;;1.95;0.90;;;;;;;22.16;37.93;101535.31;4867942;26;20039;-47
2024/04/10 06:52:01;;;;;;;1.50;0.70;;;;;;;22.17;38.02;101543.59;4869035;26;20096;-48
2024/04/10 06:54:12;;;;;;;2.55;0.80;;;;;;;22.17;38.12;101548.50;4868610;26;20003;-47
2024/04/10 06:56:23;;;;;;;3.17;0.90;;;;;;;22.15;36.44;101545.97;4868786;26;20008;-48
2024/04/10 06:58:36;;;;;;;2.60;0.90;;;;;;;22.14;38.14;101550.06;4869301;26;20007;-47
2024/04/10 07:01:07;;;;;;;2.42;0.90;;;;;;;22.14;37.16;101555.81;4865790;26;20012;-47
2024/04/10 07:03:17;;;;;;;1.38;0.65;;;;;;;22.14;37.31;101557.84;4865215;26;20012;-47
2024/04/10 07:05:27;;;;;;;2.50;1.05;;;;;;;22.14;37.23;101566.47;4866110;26;20459;-48
2024/04/10 07:07:39;;;;;;;1.48;0.88;;;;;;;22.14;36.96;101567.31;4868334;26;20022;-47
2024/04/10 07:09:50;;;;;;;1.67;0.82;;;;;;;22.13;36.44;101576.28;4866383;26;20015;-47
2024/04/10 07:12:01;;;;;;;1.70;0.80;;;;;;;22.12;37.20;101569.69;4867322;26;20000;-48
2024/04/10 07:14:12;;;;;;;2.38;0.93;;;;;;;22.12;37.58;101575.44;4868768;26;20007;-47
2024/04/10 07:16:26;;;;;;;2.00;0.80;;;;;;;22.13;36.74;101580.00;4869067;26;20012;-49
2024/04/10 07:18:36;;;;;;;2.05;0.80;;;;;;;22.14;37.13;101586.59;4866794;26;20064;-51
2024/04/10 07:21:06;;;;;;;3.10;1.00;;;;;;;22.12;36.81;101584.06;4865926;26;20007;-50
2024/04/10 07:23:16;;;;;;;2.00;0.88;;;;;;;22.13;36.95;101594.38;4868154;26;20018;-47
2024/04/10 07:25:27;;;;;;;1.88;0.90;;;;;;;22.12;37.53;101588.97;4867471;26;20011;-51
2024/04/10 07:27:37;;;;;;;1.70;0.82;;;;;;;22.12;37.69;101592.69;4870206;26;20011;-47
2024/04/10 07:29:47;;;;;;;1.30;0.70;;;;;;;22.13;37.56;101599.28;4895443;26;20022;-46
2024/04/10 07:31:58;;;;;;;2.47;0.82;;;;;;;22.12;37.57;101609.09;4865407;26;20012;-47
2024/04/10 07:34:10;;;;;;;2.25;1.10;;;;;;;22.13;37.01;101611.66;4870744;26;20011;-51
2024/04/10 07:36:21;;;;;;;2.08;1.00;;;;;;;22.12;37.69;101612.81;4865388;26;20011;-49
2024/04/10 07:38:32;;;;;;;2.08;0.80;;;;;;;22.12;37.84;101606.22;4865355;26;20381;-51
2024/04/10 07:40:56;;;;;;;1.83;0.90;;;;;;;22.14;36.58;101618.22;4873732;26;20018;-49
2024/04/10 07:43:06;;;;;;;1.45;0.93;;;;;;;22.14;37.62;101623.97;4865905;26;20019;-49
2024/04/10 07:45:17;;;;;;;1.80;1.13;;;;;;;22.14;37.69;101627.69;4871659;26;22425;-48
2024/04/10 07:47:27;;;;;;;1.77;0.90;;;;;;;22.15;37.71;101637.16;4863510;26;20015;-49
2024/04/10 07:49:37;;;;;;;2.95;1.20;;;;;;;22.14;37.52;101639.19;4865626;26;20083;-48
2024/04/10 07:51:48;;;;;;;2.85;1.10;;;;;;;22.15;37.30;101637.16;4863618;26;20024;-49
2024/04/10 07:53:58;;;;;;;1.52;0.98;;;;;;;22.15;37.08;101640.03;4864577;26;20359;-49
2024/04/10 07:56:12;;;;;;;2.72;0.93;;;;;;;22.16;37.41;101645.44;4864271;26;20026;-50
2024/04/10 07:58:23;;;;;;;2.15;1.00;;;;;;;22.15;37.47;101646.63;4866042;26;20024;-49
2024/04/10 08:00:34;;;;;;;2.05;0.98;;;;;;;22.18;37.77;101659.47;4868596;26;20011;-52
2024/04/10 08:02:44;;;;;;;1.70;1.13;;;;;;;22.18;37.76;101665.22;4864157;26;20016;-49
2024/04/10 08:04:55;;;;;;;3.17;1.50;;;;;;;22.18;38.10;101660.28;4864349;26;20461;-54
2024/04/10 08:07:05;;;;;;;2.47;0.90;;;;;;;22.18;37.71;101674.66;4866074;26;20015;-49
2024/04/10 08:09:15;;;;;;;1.80;0.90;;;;;;;22.18;38.22;101660.28;4865729;26;20011;-52
2024/04/10 08:11:27;;;;;;;2.28;1.08;;;;;;;22.20;39.23;101669.41;4864633;26;20012;-49
2024/04/10 08:13:37;;;;;;;2.50;1.10;;;;;;;22.19;38.76;101673.50;4870188;26;20016;-52
2024/04/10 08:16:01;;;;;;;1.77;1.00;;;;;;;22.20;38.57;101678.03;4868908;26;20011;-48
2024/04/10 08:18:13;;;;;;;1.85;1.10;;;;;;;22.19;38.57;101682.13;4864609;26;20012;-48
2024/04/10 08:20:23;;;;;;;2.95;1.33;;;;;;;22.20;37.55;101692.41;4869116;26;20534;-53
2024/04/10 08:22:34;;;;;;;1.95;1.10;;;;;;;22.20;38.11;101692.41;4864920;26;20052;-49
2024/04/10 08:24:45;;;;;;;1.65;0.95;;;;;;;22.21;37.41;101694.09;4867546;26;20024;-49
2024/04/10 08:26:56;;;;;;;1.30;0.70;;;;;;;22.21;37.51;101690.38;4867381;26;20007;-50
2024/04/10 08:29:09;;;;;;;1.98;1.17;;;;;;;22.23;37.21;101695.78;4864132;26;20015;-51
2024/04/10 08:31:22;;;;;;;1.83;0.98;;;;;;;22.20;37.44;101697.31;4867269;26;20084;-51
2024/04/10 08:33:33;;;;;;;0.95;0.80;;;;;;;22.25;37.92;101710.66;4866877;26;20059;-54
2024/04/10 08:35:51;;;;;;;1.08;0.70;;;;;;;22.23;38.72;101711.84;4868385;26;20012;-50
2024/04/10 08:38:01;;;;;;;1.02;0.77;;;;;;;22.23;38.49;101714.72;4861843;26;20118;-51
2024/04/10 08:40:11;;;;;;;1.77;1.00;;;;;;;22.25;38.81;101722.16;4866469;26;20012;-51
2024/04/10 08:42:23;;;;;;;2.13;0.80;;;;;;;22.23;38.92;101722.53;4864066;26;20016;-52
2024/04/10 08:44:33;;;;;;;1.17;0.90;;;;;;;22.24;38.24;101727.06;4867233;26;20026;-50
2024/04/10 08:46:44;;;;;;;0.93;0.70;;;;;;;22.23;38.31;101724.56;4865353;26;20023;-50
2024/04/10 08:48:59;;;;;;;1.90;1.00;;;;;;;22.23;37.86;101725.41;4865439;26;20026;-50
2024/04/10 08:51:14;;;;;;;0.90;0.60;;;;;;;22.25;38.33;101730.81;4864760;26;20016;-52
2024/04/10 08:53:25;;;;;;;1.35;0.88;;;;;;;22.25;38.66;101739.44;4865991;26;20022;-53
2024/04/10 08:55:35;;;;;;;0.80;0.68;;;;;;;22.26;38.72;101735.34;4865533;26;20071;-51
2024/04/10 08:57:46;;;;;;;1.00;0.70;;;;;;;22.27;38.48;101739.91;4865085;26;20011;-51
2024/04/10 08:59:56;;;;;;;1.52;0.85;;;;;;;22.27;38.80;101737.88;4864715;26;20011;-50
2024/04/10 09:02:07;;;;;;;2.22;1.10;;;;;;;22.26;37.51;101744.81;4868339;26;20034;-51
2024/04/10 09:04:21;;;;;;;1.40;0.95;;;;;;;22.27;38.47;101748.53;4864088;26;20014;-53
2024/04/10 09:06:31;;;;;;;1.73;0.93;;;;;;;22.27;38.76;101745.66;4880460;26;20021;-55
2024/04/10 09:08:42;;;;;;;1.25;0.68;;;;;;;22.27;38.56;101739.91;4866995;26;20029;-53
2024/04/10 09:10:54;;;;;;;1.20;0.90;;;;;;;22.27;38.80;101737.03;4865955;26;20047;-53
2024/04/10 09:13:09;;;;;;;1.00;0.90;;;;;;;22.27;39.55;101737.88;4865645;26;20023;-51
2024/04/10 09:15:21;;;;;;;2.05;0.98;;;;;;;22.29;39.83;101737.53;4864822;26;20007;-51
2024/04/10 09:17:31;;;;;;;1.75;1.20;;;;;;;22.25;39.51;101737.38;4866202;26;20016;-53
2024/04/10 09:19:42;;;;;;;1.48;1.10;;;;;;;22.28;38.84;101741.59;4866566;26;20475;-54
2024/04/10 09:21:57;;;;;;;2.55;1.48;;;;;;;22.29;38.28;101746.16;4864950;26;20024;-50
2024/04/10 09:24:13;;;;;;;2.40;1.50;;;;;;;22.28;38.60;101744.47;4866351;26;20015;-49
2024/04/10 09:26:23;;;;;;;2.95;1.42;;;;;;;22.29;37.91;101754.78;4883240;26;20011;-50
2024/04/10 09:28:34;;;;;;;2.78;1.40;;;;;;;22.30;38.03;101753.56;4867362;26;20008;-52
2024/04/10 09:30:44;;;;;;;2.30;1.50;;;;;;;22.32;38.65;101756.94;4865755;26;20089;-52
2024/04/10 09:32:57;;;;;;;2.88;1.50;;;;;;;22.31;38.65;101749.53;4867904;26;20467;-50
2024/04/10 09:35:07;;;;;;;1.98;1.30;;;;;;;22.32;38.65;101757.78;4882938;26;20579;-56
2024/04/10 09:37:19;;;;;;;2.22;1.30;;;;;;;22.33;39.05;101752.88;4868437;26;20023;-53
2024/04/10 09:39:30;;;;;;;2.35;1.60;;;;;;;22.33;38.44;101759.47;4867671;26;20012;-50
2024/04/10 09:41:44;;;;;;;2.80;1.60;;;;;;;22.33;38.22;101761.50;4868538;26;20008;-50
2024/04/10 09:43:55;;;;;;;2.63;1.83;;;;;;;22.36;37.72;101763.69;4869217;26;20702;-49
2024/04/10 09:46:08;;;;;;;3.08;1.77;;;;;;;22.36;37.78;101758.75;4867474;26;20007;-48
2024/04/10 09:48:21;;;;;;;2.38;1.45;;;;;;;22.36;38.23;101763.69;4868959;26;20011;-51
2024/04/10 09:50:37;;;;;;;2.17;1.60;;;;;;;22.39;38.03;101760.13;4868425;26;20141;-51
2024/04/10 09:52:50;;;;;;;2.35;1.60;;;;;;;22.39;38.55;101766.69;4867771;26;20996;-54
2024/04/10 09:55:01;;;;;;;3.05;1.80;;;;;;;22.41;38.01;101772.94;4867385;26;20075;-53
2024/04/10 09:57:13;;;;;;;1.80;1.20;;;;;;;22.42;38.91;101779.53;4870796;26;20359;-50
2024/04/10 09:59:23;;;;;;;1.90;1.40;;;;;;;22.41;38.24;101777.84;4865530;26;20788;-55
2024/04/10 10:01:34;;;;;;;2.35;1.35;;;;;;;22.42;38.61;101780.38;4869372;26;20048;-54
2024/04/10 10:03:55;;;;;;;2.83;1.60;;;;;;;22.43;37.35;101775.47;4866111;26;20471;-52
2024/04/10 10:06:08;;;;;;;2.67;1.58;;;;;;;22.44;37.95;101771.41;4866723;26;20004;-51
2024/04/10 10:08:18;;;;;;;3.28;1.77;;;;;;;22.45;37.91;101775.97;4865647;26;20629;-50
2024/04/10 10:10:29;;;;;;;1.95;1.73;;;;;;;22.47;38.14;101782.22;4864298;26;20100;-50
2024/04/10 10:12:39;;;;;;;3.20;1.80;;;;;;;22.47;37.66;101777.28;4867938;26;20062;-50